Time;durP1;ratioP1;P1;durP2;ratioP2;P2;SDS_P1;SDS_P2;PMS_P1;PMS_P2;Temp;Humidity;BMP_temperature;BMP_pressure;BME280_temperature;BME280_humidity;BME280_pressure;Samples;Min_cycle;Max_cycle;Signal;HPM_P1;HPM_P2
2024/01/06 00:01:16;;;;;;;11.60;7.13;;;;;;;;;;5031019;28;20710;-69
2024/01/06 00:03:41;;;;;;;11.77;7.23;;;;;;;;;;5029787;28;20178;-69
2024/01/06 00:06:07;;;;;;;10.93;6.93;;;;;;;;;;5011120;28;20183;-68
2024/01/06 00:08:32;;;;;;;11.00;6.67;;;;;;;;;;5027116;28;20670;-70
2024/01/06 00:10:57;;;;;;;11.97;7.00;;;;;;;;;;5027044;28;20621;-69
2024/01/06 00:13:22;;;;;;;11.90;6.37;;;;;;;;;;5030734;28;20186;-69
2024/01/06 00:15:47;;;;;;;10.07;6.27;;;;;;;;;;5028573;28;20202;-70
2024/01/06 00:18:13;;;;;;;11.27;6.33;;;;;;;;;;5029302;28;20202;-69
2024/01/06 00:20:38;;;;;;;13.03;7.43;;;;;;;;;;5025710;28;20209;-69
2024/01/06 00:23:03;;;;;;;10.80;6.40;;;;;;;;;;5009141;28;20213;-69
2024/01/06 00:25:29;;;;;;;11.40;6.47;;;;;;;;;;5023400;28;20185;-69
2024/01/06 00:27:54;;;;;;;9.20;5.97;;;;;;;;;;5030208;28;20185;-68
2024/01/06 00:30:19;;;;;;;11.87;6.13;;;;;;;;;;5020999;28;20862;-68
2024/01/06 00:32:44;;;;;;;9.40;5.77;;;;;;;;;;5018750;28;20183;-70
2024/01/06 00:35:09;;;;;;;11.10;6.93;;;;;;;;;;5027617;28;20681;-70
2024/01/06 00:37:35;;;;;;;10.17;5.83;;;;;;;;;;5023993;28;20182;-69
2024/01/06 00:40:00;;;;;;;9.97;5.97;;;;;;;;;;5025548;28;20221;-70
2024/01/06 00:42:25;;;;;;;8.60;5.53;;;;;;;;;;5028452;28;20209;-69
2024/01/06 00:44:50;;;;;;;9.80;5.43;;;;;;;;;;5029816;28;20170;-70
2024/01/06 00:47:15;;;;;;;8.70;5.10;;;;;;;;;;5027710;28;20170;-69
2024/01/06 00:49:41;;;;;;;8.03;4.83;;;;;;;;;;5028970;28;20568;-68
2024/01/06 00:52:06;;;;;;;7.10;4.47;;;;;;;;;;5031715;28;20177;-70
2024/01/06 00:54:31;;;;;;;4.97;3.57;;;;;;;;;;5030360;28;20211;-68
2024/01/06 00:56:56;;;;;;;4.87;3.10;;;;;;;;;;5011699;28;20583;-69
2024/01/06 00:59:22;;;;;;;5.23;3.80;;;;;;;;;;5031053;28;20194;-69
2024/01/06 01:01:47;;;;;;;7.33;3.53;;;;;;;;;;5032697;28;20178;-70
2024/01/06 01:04:12;;;;;;;9.17;3.70;;;;;;;;;;5031947;28;20172;-70
2024/01/06 01:06:37;;;;;;;6.37;3.80;;;;;;;;;;5029347;28;20182;-68
2024/01/06 01:09:04;;;;;;;8.53;3.50;;;;;;;;;;5014277;28;20697;-68
2024/01/06 01:11:29;;;;;;;5.53;3.40;;;;;;;;;;5018343;28;20563;-69
2024/01/06 01:13:54;;;;;;;5.47;3.37;;;;;;;;;;5026783;28;20178;-68
2024/01/06 01:16:19;;;;;;;5.17;3.30;;;;;;;;;;5029166;28;20689;-69
2024/01/06 01:18:45;;;;;;;4.70;3.17;;;;;;;;;;5030096;28;20198;-69
2024/01/06 01:21:10;;;;;;;5.77;3.93;;;;;;;;;;5028561;28;20174;-70
2024/01/06 01:23:36;;;;;;;6.43;4.00;;;;;;;;;;5030325;28;20725;-67
2024/01/06 01:26:01;;;;;;;6.67;4.17;;;;;;;;;;5028310;28;20178;-70
2024/01/06 01:28:26;;;;;;;4.27;2.90;;;;;;;;;;5028988;28;20198;-70
2024/01/06 01:30:51;;;;;;;5.07;3.40;;;;;;;;;;5030046;28;20181;-69
2024/01/06 01:33:16;;;;;;;4.77;2.97;;;;;;;;;;5030010;28;20178;-69
2024/01/06 01:35:42;;;;;;;5.03;2.83;;;;;;;;;;5030161;28;20277;-69
2024/01/06 01:38:07;;;;;;;4.47;3.27;;;;;;;;;;5029144;28;20273;-70
2024/01/06 01:40:32;;;;;;;5.03;3.30;;;;;;;;;;5024814;28;20680;-69
2024/01/06 01:42:57;;;;;;;6.10;3.67;;;;;;;;;;5029105;28;20190;-70
2024/01/06 01:45:22;;;;;;;5.90;3.73;;;;;;;;;;5023965;28;20175;-70
2024/01/06 01:47:48;;;;;;;8.33;4.47;;;;;;;;;;5028790;28;20580;-68
2024/01/06 01:50:13;;;;;;;8.60;4.10;;;;;;;;;;5029491;28;20185;-69
2024/01/06 01:52:40;;;;;;;7.93;4.90;;;;;;;;;;5028656;28;20252;-69
2024/01/06 01:55:05;;;;;;;6.70;4.37;;;;;;;;;;5029974;28;20175;-69
2024/01/06 01:57:31;;;;;;;7.47;4.70;;;;;;;;;;5029613;28;20178;-69
2024/01/06 01:59:56;;;;;;;7.90;4.83;;;;;;;;;;5027803;28;20253;-69
2024/01/06 02:02:22;;;;;;;7.43;4.57;;;;;;;;;;5032372;28;20174;-69
2024/01/06 02:04:47;;;;;;;7.03;4.67;;;;;;;;;;5031760;28;20363;-68
2024/01/06 02:07:13;;;;;;;7.53;4.43;;;;;;;;;;5033428;28;20270;-69
2024/01/06 02:09:38;;;;;;;9.87;4.07;;;;;;;;;;5029492;28;20401;-69
2024/01/06 02:12:03;;;;;;;7.27;4.60;;;;;;;;;;5029941;28;20194;-69
2024/01/06 02:14:28;;;;;;;9.23;4.73;;;;;;;;;;5031816;28;20225;-69
2024/01/06 02:16:54;;;;;;;8.37;5.50;;;;;;;;;;5030123;28;20215;-69
2024/01/06 02:19:19;;;;;;;8.50;5.27;;;;;;;;;;5029653;28;20202;-68
2024/01/06 02:21:47;;;;;;;8.40;5.37;;;;;;;;;;5032902;28;20219;-70
2024/01/06 02:24:13;;;;;;;8.10;5.10;;;;;;;;;;5031827;28;20672;-69
2024/01/06 02:26:38;;;;;;;10.90;5.40;;;;;;;;;;5027864;28;20443;-69
2024/01/06 02:29:03;;;;;;;9.27;5.07;;;;;;;;;;5028468;28;20202;-69
2024/01/06 02:31:28;;;;;;;7.73;4.83;;;;;;;;;;5030583;28;20236;-68
2024/01/06 02:33:53;;;;;;;8.70;5.53;;;;;;;;;;5031920;28;20190;-70
2024/01/06 02:36:19;;;;;;;9.20;5.53;;;;;;;;;;5032944;28;20202;-69
2024/01/06 02:38:44;;;;;;;10.67;5.27;;;;;;;;;;5031241;28;20237;-68
2024/01/06 02:41:09;;;;;;;13.10;5.73;;;;;;;;;;5031822;28;20236;-69
2024/01/06 02:43:34;;;;;;;10.03;6.00;;;;;;;;;;5029797;28;20182;-70
2024/01/06 02:45:59;;;;;;;9.40;5.93;;;;;;;;;;5032373;28;20221;-69
2024/01/06 02:48:25;;;;;;;12.30;6.30;;;;;;;;;;5031742;28;20216;-70
2024/01/06 02:50:50;;;;;;;11.30;6.40;;;;;;;;;;5033820;28;20668;-70
2024/01/06 02:53:15;;;;;;;12.27;6.07;;;;;;;;;;5034515;28;20198;-71
2024/01/06 02:55:40;;;;;;;10.27;5.87;;;;;;;;;;5017795;28;20208;-69
2024/01/06 02:58:05;;;;;;;12.83;6.73;;;;;;;;;;5031531;28;20229;-69
2024/01/06 03:00:31;;;;;;;11.33;6.40;;;;;;;;;;5031927;28;20170;-70
2024/01/06 03:02:56;;;;;;;10.97;5.73;;;;;;;;;;5031133;28;20646;-70
2024/01/06 03:05:21;;;;;;;10.50;6.40;;;;;;;;;;5030110;28;20198;-70
2024/01/06 03:07:46;;;;;;;9.47;5.67;;;;;;;;;;5029390;28;20653;-70
2024/01/06 03:10:11;;;;;;;9.73;6.27;;;;;;;;;;5012487;28;20206;-69
2024/01/06 03:12:37;;;;;;;10.17;5.37;;;;;;;;;;5030963;28;20260;-70
2024/01/06 03:15:02;;;;;;;10.17;6.00;;;;;;;;;;5027166;28;20178;-70
2024/01/06 03:17:28;;;;;;;10.03;6.03;;;;;;;;;;5032440;28;20261;-68
2024/01/06 03:19:53;;;;;;;10.90;5.90;;;;;;;;;;5029662;28;20205;-69
2024/01/06 03:22:19;;;;;;;8.70;5.67;;;;;;;;;;5032019;28;20179;-68
2024/01/06 03:24:44;;;;;;;8.50;5.47;;;;;;;;;;5030707;28;20170;-70
2024/01/06 03:27:09;;;;;;;8.83;4.90;;;;;;;;;;5029762;28;20702;-69
2024/01/06 03:29:34;;;;;;;8.27;5.07;;;;;;;;;;5009903;28;20380;-69
2024/01/06 03:31:59;;;;;;;9.20;5.30;;;;;;;;;;5031305;28;20193;-70
2024/01/06 03:34:25;;;;;;;8.47;5.17;;;;;;;;;;5013577;28;20265;-70
2024/01/06 03:36:50;;;;;;;8.03;5.47;;;;;;;;;;5029658;28;20573;-69
2024/01/06 03:39:15;;;;;;;9.20;5.50;;;;;;;;;;5028617;28;20370;-69
2024/01/06 03:41:40;;;;;;;7.67;4.20;;;;;;;;;;5030778;28;20178;-69
2024/01/06 03:44:06;;;;;;;6.03;4.77;;;;;;;;;;5028475;28;20627;-70
2024/01/06 03:46:32;;;;;;;8.60;3.70;;;;;;;;;;5029007;28;20182;-70
2024/01/06 03:48:57;;;;;;;5.97;3.37;;;;;;;;;;5030270;28;20206;-69
2024/01/06 03:51:23;;;;;;;5.37;3.70;;;;;;;;;;5032216;28;20653;-69
2024/01/06 03:53:48;;;;;;;5.67;3.77;;;;;;;;;;5030482;28;20178;-68
2024/01/06 03:56:13;;;;;;;4.33;3.20;;;;;;;;;;5030369;28;20343;-69
2024/01/06 03:58:38;;;;;;;6.67;4.10;;;;;;;;;;5030264;28;20205;-68
2024/01/06 04:01:03;;;;;;;8.03;5.00;;;;;;;;;;5030355;28;20186;-70
2024/01/06 04:03:29;;;;;;;7.10;4.37;;;;;;;;;;5029952;28;20190;-70
2024/01/06 04:05:54;;;;;;;9.37;4.33;;;;;;;;;;5031157;28;20249;-70
2024/01/06 04:08:19;;;;;;;7.47;3.87;;;;;;;;;;5024172;28;20206;-69
2024/01/06 04:10:44;;;;;;;7.73;4.33;;;;;;;;;;5029182;28;20184;-70
2024/01/06 04:13:13;;;;;;;4.73;3.47;;;;;;;;;;5029889;28;20194;-69
2024/01/06 04:15:38;;;;;;;10.60;3.77;;;;;;;;;;5028711;28;20228;-69
2024/01/06 04:18:04;;;;;;;5.07;3.43;;;;;;;;;;5028569;28;20186;-70
2024/01/06 04:20:29;;;;;;;5.87;3.80;;;;;;;;;;5029527;28;20189;-69
2024/01/06 04:22:54;;;;;;;4.00;3.47;;;;;;;;;;5031136;28;20185;-69
2024/01/06 04:25:21;;;;;;;5.23;3.27;;;;;;;;;;5029071;28;20178;-69
2024/01/06 04:27:46;;;;;;;8.10;3.20;;;;;;;;;;5026800;28;20221;-69
2024/01/06 04:30:12;;;;;;;7.20;3.30;;;;;;;;;;5023360;28;20186;-71
2024/01/06 04:32:37;;;;;;;7.00;3.83;;;;;;;;;;5030283;28;20255;-69
2024/01/06 04:35:02;;;;;;;6.67;3.87;;;;;;;;;;5029805;28;20190;-70
2024/01/06 04:37:28;;;;;;;11.27;5.20;;;;;;;;;;5013355;28;20532;-70
2024/01/06 04:39:53;;;;;;;7.13;4.60;;;;;;;;;;5029393;28;20193;-69
2024/01/06 04:42:19;;;;;;;7.63;4.50;;;;;;;;;;5030922;28;20186;-70
2024/01/06 04:44:44;;;;;;;9.63;5.47;;;;;;;;;;5027587;28;20577;-68
2024/01/06 04:47:10;;;;;;;7.03;5.20;;;;;;;;;;5029891;28;20308;-69
2024/01/06 04:49:35;;;;;;;9.67;4.93;;;;;;;;;;5030822;28;20194;-70
2024/01/06 04:52:00;;;;;;;11.47;5.10;;;;;;;;;;5031647;28;20284;-69
2024/01/06 04:54:25;;;;;;;17.10;5.77;;;;;;;;;;5031227;28;20174;-69
2024/01/06 04:56:50;;;;;;;7.80;5.73;;;;;;;;;;5029911;28;20574;-70
2024/01/06 04:59:15;;;;;;;11.40;5.17;;;;;;;;;;5032458;28;20216;-71
2024/01/06 05:01:41;;;;;;;7.27;5.20;;;;;;;;;;5009149;28;20182;-70
2024/01/06 05:04:06;;;;;;;8.80;5.33;;;;;;;;;;5028127;28;20170;-70
2024/01/06 05:06:31;;;;;;;10.30;5.13;;;;;;;;;;5025269;28;20776;-71
2024/01/06 05:08:57;;;;;;;6.50;4.97;;;;;;;;;;5028941;28;20229;-69
2024/01/06 05:11:22;;;;;;;9.87;5.47;;;;;;;;;;5026766;28;20186;-69
2024/01/06 05:13:47;;;;;;;9.10;4.90;;;;;;;;;;5028120;28;20178;-68
2024/01/06 05:16:12;;;;;;;9.13;5.70;;;;;;;;;;5025893;28;20245;-69
2024/01/06 05:18:37;;;;;;;7.40;4.87;;;;;;;;;;5028316;28;20293;-69
2024/01/06 05:21:03;;;;;;;8.00;4.80;;;;;;;;;;5030691;28;20205;-70
2024/01/06 05:23:29;;;;;;;9.70;4.63;;;;;;;;;;5029259;28;20202;-68
2024/01/06 05:25:54;;;;;;;7.87;4.57;;;;;;;;;;5027186;28;20275;-70
2024/01/06 05:28:19;;;;;;;7.47;4.73;;;;;;;;;;5029577;28;20206;-70
2024/01/06 05:30:44;;;;;;;7.93;4.83;;;;;;;;;;5025696;28;20190;-70
2024/01/06 05:33:10;;;;;;;8.47;4.67;;;;;;;;;;5028524;28;20208;-70
2024/01/06 05:35:35;;;;;;;6.07;3.80;;;;;;;;;;5032311;28;20643;-70
2024/01/06 05:38:01;;;;;;;7.40;4.13;;;;;;;;;;5032358;28;20556;-69
2024/01/06 05:40:26;;;;;;;6.53;4.20;;;;;;;;;;5033333;28;20240;-69
2024/01/06 05:42:55;;;;;;;6.93;3.80;;;;;;;;;;5034404;28;20311;-70
2024/01/06 05:45:20;;;;;;;6.93;4.17;;;;;;;;;;5033102;28;20565;-69
2024/01/06 05:47:45;;;;;;;7.20;3.93;;;;;;;;;;5029300;28;20193;-69
2024/01/06 05:50:10;;;;;;;4.87;3.30;;;;;;;;;;5031220;28;20210;-68
2024/01/06 05:52:36;;;;;;;6.10;4.07;;;;;;;;;;5032878;28;20320;-69
2024/01/06 05:55:01;;;;;;;5.77;4.13;;;;;;;;;;5032558;28;20182;-69
2024/01/06 05:57:26;;;;;;;5.90;2.80;;;;;;;;;;5031900;28;20189;-69
2024/01/06 05:59:51;;;;;;;5.07;3.20;;;;;;;;;;5032502;28;20194;-68
2024/01/06 06:02:16;;;;;;;3.33;2.63;;;;;;;;;;5032323;28;20185;-69
2024/01/06 06:04:42;;;;;;;5.57;3.30;;;;;;;;;;5032166;28;20232;-70
2024/01/06 06:07:07;;;;;;;7.60;3.57;;;;;;;;;;5031826;28;20182;-69
2024/01/06 06:09:34;;;;;;;7.17;2.97;;;;;;;;;;5030806;28;20232;-71
2024/01/06 06:11:59;;;;;;;6.07;4.00;;;;;;;;;;5033717;28;20701;-69
2024/01/06 06:14:24;;;;;;;5.07;3.43;;;;;;;;;;5030378;28;20228;-69
2024/01/06 06:16:50;;;;;;;7.53;3.80;;;;;;;;;;5009815;28;20207;-70
2024/01/06 06:19:15;;;;;;;6.07;3.90;;;;;;;;;;5029789;28;20385;-70
2024/01/06 06:21:40;;;;;;;4.83;2.93;;;;;;;;;;5025621;28;20178;-70
2024/01/06 06:24:05;;;;;;;4.87;3.30;;;;;;;;;;5031999;28;20174;-69
2024/01/06 06:26:31;;;;;;;5.83;3.87;;;;;;;;;;5030646;28;20588;-69
2024/01/06 06:28:56;;;;;;;5.20;3.43;;;;;;;;;;5033427;28;20217;-69
2024/01/06 06:31:21;;;;;;;5.20;3.60;;;;;;;;;;5022842;28;20178;-69
2024/01/06 06:33:46;;;;;;;7.03;4.50;;;;;;;;;;5031278;28;20577;-70
2024/01/06 06:36:11;;;;;;;6.53;4.10;;;;;;;;;;5030677;28;20212;-69
2024/01/06 06:38:37;;;;;;;7.13;4.40;;;;;;;;;;5015066;28;20206;-69
2024/01/06 06:41:02;;;;;;;8.30;4.07;;;;;;;;;;5033635;28;20178;-70
2024/01/06 06:43:27;;;;;;;6.70;4.50;;;;;;;;;;5033191;28;20616;-70
2024/01/06 06:45:53;;;;;;;8.97;4.57;;;;;;;;;;5012230;28;20179;-70
2024/01/06 06:48:18;;;;;;;8.33;4.37;;;;;;;;;;5027681;28;20198;-70
2024/01/06 06:50:43;;;;;;;7.13;3.93;;;;;;;;;;5034171;28;20178;-71
2024/01/06 06:53:09;;;;;;;7.07;4.83;;;;;;;;;;5034788;28;20186;-70
2024/01/06 06:55:34;;;;;;;7.37;4.07;;;;;;;;;;5023964;28;20666;-70
2024/01/06 06:57:59;;;;;;;6.40;3.57;;;;;;;;;;5012372;28;20182;-69
2024/01/06 07:00:24;;;;;;;6.57;4.00;;;;;;;;;;5030367;28;20221;-68
2024/01/06 07:02:50;;;;;;;5.03;3.60;;;;;;;;;;5030723;28;20269;-70
2024/01/06 07:05:15;;;;;;;4.17;3.07;;;;;;;;;;5013651;28;20629;-69
2024/01/06 07:07:40;;;;;;;7.30;3.07;;;;;;;;;;5028944;28;20174;-70
2024/01/06 07:10:06;;;;;;;5.87;3.77;;;;;;;;;;5029248;28;20588;-70
2024/01/06 07:12:32;;;;;;;6.93;4.13;;;;;;;;;;5028734;28;20205;-68
2024/01/06 07:14:58;;;;;;;4.03;3.10;;;;;;;;;;5029391;28;20209;-69
2024/01/06 07:17:23;;;;;;;5.20;3.13;;;;;;;;;;5031061;28;20202;-70
2024/01/06 07:19:49;;;;;;;5.63;3.10;;;;;;;;;;5029806;28;20191;-70
2024/01/06 07:22:16;;;;;;;4.47;2.80;;;;;;;;;;5027970;28;20616;-70
2024/01/06 07:24:41;;;;;;;6.03;3.27;;;;;;;;;;5013581;28;20182;-69
2024/01/06 07:27:06;;;;;;;7.47;3.40;;;;;;;;;;5030749;28;20335;-70
2024/01/06 07:29:31;;;;;;;5.27;3.70;;;;;;;;;;5029224;28;20232;-69
2024/01/06 07:31:57;;;;;;;5.90;3.90;;;;;;;;;;5026051;28;20179;-69
2024/01/06 07:34:22;;;;;;;6.33;4.10;;;;;;;;;;5029127;28;20667;-69
2024/01/06 07:36:47;;;;;;;6.43;3.90;;;;;;;;;;5014344;28;20653;-69
2024/01/06 07:39:12;;;;;;;5.63;4.07;;;;;;;;;;5027704;28;20271;-69
2024/01/06 07:41:38;;;;;;;5.97;3.83;;;;;;;;;;5026503;28;20674;-69
2024/01/06 07:44:03;;;;;;;9.93;4.33;;;;;;;;;;5027597;28;20186;-70
2024/01/06 07:46:28;;;;;;;5.40;3.90;;;;;;;;;;5025509;28;20182;-70
2024/01/06 07:48:54;;;;;;;8.47;4.40;;;;;;;;;;5026438;28;20202;-70
2024/01/06 07:51:19;;;;;;;8.17;5.00;;;;;;;;;;5030695;28;20285;-70
2024/01/06 07:53:44;;;;;;;8.10;5.23;;;;;;;;;;5030328;28;20178;-70
2024/01/06 07:56:09;;;;;;;7.37;4.77;;;;;;;;;;5025999;28;20209;-69
2024/01/06 07:58:34;;;;;;;9.33;5.57;;;;;;;;;;5028173;28;20256;-69
2024/01/06 08:01:00;;;;;;;8.10;5.00;;;;;;;;;;5009974;28;20665;-70
2024/01/06 08:03:25;;;;;;;6.80;5.33;;;;;;;;;;5030396;28;20236;-71
2024/01/06 08:05:50;;;;;;;10.03;6.27;;;;;;;;;;5024230;28;20183;-69
2024/01/06 08:08:16;;;;;;;7.03;5.30;;;;;;;;;;5069285;22;20233;-69
2024/01/06 08:10:42;;;;;;;8.30;5.13;;;;;;;;;;5029120;28;20204;-66
2024/01/06 08:13:07;;;;;;;7.23;4.57;;;;;;;;;;5014806;28;20174;-69
2024/01/06 08:15:32;;;;;;;7.17;5.27;;;;;;;;;;5030640;28;20368;-69
2024/01/06 08:17:57;;;;;;;9.57;5.20;;;;;;;;;;5011111;28;20190;-69
2024/01/06 08:20:23;;;;;;;5.77;4.30;;;;;;;;;;5030400;28;20696;-68
2024/01/06 08:22:48;;;;;;;6.83;4.57;;;;;;;;;;5028811;28;20257;-69
2024/01/06 08:25:14;;;;;;;9.13;5.10;;;;;;;;;;5025961;28;20279;-68
2024/01/06 08:27:39;;;;;;;9.33;5.73;;;;;;;;;;5028259;28;20645;-68
2024/01/06 08:30:04;;;;;;;9.30;4.90;;;;;;;;;;5028274;28;20688;-69
2024/01/06 08:32:30;;;;;;;10.53;5.03;;;;;;;;;;5026075;28;20620;-66
2024/01/06 08:34:55;;;;;;;9.30;5.03;;;;;;;;;;5019599;28;20174;-67
2024/01/06 08:37:20;;;;;;;7.33;4.80;;;;;;;;;;5026376;28;20209;-67
2024/01/06 08:39:45;;;;;;;7.80;4.50;;;;;;;;;;5028054;28;20201;-66
2024/01/06 08:42:10;;;;;;;8.67;5.23;;;;;;;;;;5016819;28;20603;-66
2024/01/06 08:44:36;;;;;;;7.37;4.97;;;;;;;;;;5033738;28;20534;-66
2024/01/06 08:47:01;;;;;;;6.73;4.50;;;;;;;;;;5027550;28;20201;-67
2024/01/06 08:49:26;;;;;;;7.27;4.73;;;;;;;;;;5023215;28;20206;-66
2024/01/06 08:51:51;;;;;;;6.47;4.03;;;;;;;;;;5029381;28;20186;-67
2024/01/06 08:54:16;;;;;;;6.63;4.77;;;;;;;;;;5039665;28;20181;-66
2024/01/06 08:56:42;;;;;;;9.70;4.93;;;;;;;;;;5024268;28;20676;-67
2024/01/06 08:59:07;;;;;;;8.00;5.07;;;;;;;;;;5018223;28;20218;-67
2024/01/06 09:01:34;;;;;;;8.90;4.97;;;;;;;;;;5024009;28;20202;-67
2024/01/06 09:03:59;;;;;;;7.87;5.00;;;;;;;;;;5028906;28;20189;-69
2024/01/06 09:06:24;;;;;;;8.13;5.00;;;;;;;;;;5028391;28;20182;-67
2024/01/06 09:08:49;;;;;;;7.03;5.13;;;;;;;;;;5024085;28;20206;-68
2024/01/06 09:11:14;;;;;;;7.83;5.60;;;;;;;;;;5029498;28;20224;-67
2024/01/06 09:13:40;;;;;;;5.37;4.27;;;;;;;;;;5028631;28;20190;-67
2024/01/06 09:16:05;;;;;;;6.63;4.17;;;;;;;;;;5028200;28;20206;-69
2024/01/06 09:18:30;;;;;;;7.30;4.10;;;;;;;;;;5008324;28;20265;-67
2024/01/06 09:20:56;;;;;;;8.53;4.70;;;;;;;;;;5028259;28;20605;-68
2024/01/06 09:23:22;;;;;;;6.63;4.07;;;;;;;;;;5029466;28;20186;-67
2024/01/06 09:25:49;;;;;;;7.97;4.10;;;;;;;;;;5026403;28;20214;-66
2024/01/06 09:28:15;;;;;;;7.67;3.90;;;;;;;;;;5028734;28;20390;-68
2024/01/06 09:30:40;;;;;;;9.67;4.43;;;;;;;;;;5025380;28;20273;-65
2024/01/06 09:33:05;;;;;;;6.00;3.80;;;;;;;;;;5010571;28;20661;-67
2024/01/06 09:35:32;;;;;;;6.83;4.23;;;;;;;;;;5006515;28;20202;-67
2024/01/06 09:37:57;;;;;;;7.37;4.53;;;;;;;;;;5010752;28;20174;-67
2024/01/06 09:40:23;;;;;;;5.53;3.90;;;;;;;;;;5030703;28;20681;-66
2024/01/06 09:42:49;;;;;;;8.60;3.70;;;;;;;;;;5027233;28;20755;-67
2024/01/06 09:45:14;;;;;;;5.57;4.00;;;;;;;;;;5023603;28;20174;-67
2024/01/06 09:47:40;;;;;;;5.13;4.07;;;;;;;;;;5026794;28;20209;-67
2024/01/06 09:50:09;;;;;;;6.83;3.97;;;;;;;;;;5030825;28;20213;-67
2024/01/06 09:52:37;;;;;;;4.83;3.70;;;;;;;;;;5028313;28;20667;-69
2024/01/06 09:55:03;;;;;;;11.20;3.47;;;;;;;;;;5011906;28;20182;-68
2024/01/06 09:57:29;;;;;;;7.90;3.33;;;;;;;;;;5003505;28;20210;-69
2024/01/06 09:59:55;;;;;;;5.97;3.60;;;;;;;;;;5023565;28;20576;-69
2024/01/06 10:02:22;;;;;;;4.53;3.50;;;;;;;;;;5023961;28;20179;-67
2024/01/06 10:04:48;;;;;;;6.90;4.33;;;;;;;;;;5028783;28;20210;-68
2024/01/06 10:07:13;;;;;;;6.10;3.70;;;;;;;;;;5010540;28;20221;-67
2024/01/06 10:09:39;;;;;;;4.37;3.47;;;;;;;;;;5026049;28;20222;-67
2024/01/06 10:12:05;;;;;;;8.00;4.80;;;;;;;;;;5012322;28;20183;-67
2024/01/06 10:14:30;;;;;;;4.30;3.43;;;;;;;;;;5020824;28;20622;-68
2024/01/06 10:16:55;;;;;;;7.10;4.57;;;;;;;;;;5022408;28;20701;-69
2024/01/06 10:19:21;;;;;;;6.20;4.37;;;;;;;;;;5025230;28;20238;-69
2024/01/06 10:21:46;;;;;;;10.50;4.60;;;;;;;;;;5011594;28;20178;-69
2024/01/06 10:24:11;;;;;;;7.57;4.47;;;;;;;;;;5031983;28;20217;-67
2024/01/06 10:26:36;;;;;;;7.47;4.73;;;;;;;;;;5007844;28;20201;-67
2024/01/06 10:29:02;;;;;;;5.67;4.37;;;;;;;;;;5011973;28;20290;-67
2024/01/06 10:31:29;;;;;;;6.47;4.77;;;;;;;;;;5029642;28;20689;-67
2024/01/06 10:33:54;;;;;;;8.27;5.17;;;;;;;;;;5027406;28;20179;-67
2024/01/06 10:36:19;;;;;;;11.47;5.27;;;;;;;;;;5014793;28;20708;-69
2024/01/06 10:38:45;;;;;;;8.87;5.13;;;;;;;;;;5030978;28;20221;-70
2024/01/06 10:41:11;;;;;;;6.73;5.00;;;;;;;;;;5030807;28;20185;-70
2024/01/06 10:43:40;;;;;;;9.00;4.77;;;;;;;;;;5023492;28;20178;-69
2024/01/06 10:46:09;;;;;;;8.27;4.70;;;;;;;;;;5030578;28;20205;-67
2024/01/06 10:48:35;;;;;;;6.30;4.37;;;;;;;;;;5028403;28;20206;-67
2024/01/06 10:51:02;;;;;;;8.13;4.80;;;;;;;;;;5011544;28;20205;-66
2024/01/06 10:53:27;;;;;;;7.27;4.77;;;;;;;;;;5012457;28;20178;-69
2024/01/06 10:55:53;;;;;;;6.10;4.17;;;;;;;;;;5030084;28;20705;-69
2024/01/06 10:58:18;;;;;;;7.03;4.90;;;;;;;;;;5022930;28;20170;-69
2024/01/06 11:00:43;;;;;;;7.97;4.47;;;;;;;;;;5020270;28;20174;-69
2024/01/06 11:03:09;;;;;;;8.20;4.37;;;;;;;;;;5009525;28;20283;-68
2024/01/06 11:05:35;;;;;;;4.47;3.83;;;;;;;;;;5023483;28;20688;-69
2024/01/06 11:08:00;;;;;;;4.47;3.80;;;;;;;;;;5030767;28;20600;-69
2024/01/06 11:10:29;;;;;;;5.90;4.47;;;;;;;;;;5026990;28;20218;-69
2024/01/06 11:13:11;;;;;;;7.03;3.80;;;;;;;;;;5029570;28;20182;-69
2024/01/06 11:15:40;;;;;;;5.50;3.83;;;;;;;;;;5027246;28;20752;-68
2024/01/06 11:18:05;;;;;;;6.50;3.97;;;;;;;;;;5026146;28;20177;-69
2024/01/06 11:20:30;;;;;;;6.70;4.00;;;;;;;;;;5027480;28;20186;-69
2024/01/06 11:23:15;;;;;;;7.13;4.30;;;;;;;;;;5013065;28;20185;-69
2024/01/06 11:25:41;;;;;;;6.87;3.87;;;;;;;;;;5028381;28;20194;-69
2024/01/06 11:28:07;;;;;;;6.53;4.43;;;;;;;;;;5030087;28;20182;-68
2024/01/06 11:30:34;;;;;;;5.33;4.30;;;;;;;;;;5022007;28;20183;-68
2024/01/06 11:33:00;;;;;;;5.47;4.03;;;;;;;;;;5029844;28;20178;-69
2024/01/06 11:35:26;;;;;;;7.07;4.13;;;;;;;;;;5026496;28;20208;-69
2024/01/06 11:37:54;;;;;;;5.23;3.93;;;;;;;;;;5025416;28;20680;-68
2024/01/06 11:40:20;;;;;;;9.03;4.07;;;;;;;;;;5032077;28;20213;-69
2024/01/06 11:42:45;;;;;;;5.93;4.20;;;;;;;;;;5031647;28;20207;-68
2024/01/06 11:45:11;;;;;;;7.77;3.30;;;;;;;;;;5030319;28;20182;-69
2024/01/06 11:47:36;;;;;;;5.10;3.70;;;;;;;;;;5009489;28;20189;-69
2024/01/06 11:50:04;;;;;;;4.97;3.80;;;;;;;;;;5013151;28;20570;-68
2024/01/06 11:52:30;;;;;;;7.53;3.60;;;;;;;;;;5027358;28;20182;-69
2024/01/06 11:54:55;;;;;;;5.47;3.73;;;;;;;;;;5029310;28;20559;-69
2024/01/06 11:57:20;;;;;;;5.73;4.37;;;;;;;;;;5029380;28;20576;-69
2024/01/06 11:59:46;;;;;;;10.97;4.83;;;;;;;;;;5030755;28;20234;-68
2024/01/06 12:02:12;;;;;;;5.40;4.17;;;;;;;;;;5028045;28;20190;-69
2024/01/06 12:04:40;;;;;;;5.23;3.37;;;;;;;;;;5031488;28;20182;-69
2024/01/06 12:07:06;;;;;;;6.27;3.93;;;;;;;;;;5027982;28;20194;-69
2024/01/06 12:09:32;;;;;;;5.10;3.90;;;;;;;;;;5030255;28;20222;-69
2024/01/06 12:12:05;;;;;;;5.93;4.57;;;;;;;;;;5027406;28;20183;-69
2024/01/06 12:14:30;;;;;;;6.47;4.70;;;;;;;;;;5029275;28;20189;-69
2024/01/06 12:16:57;;;;;;;6.93;5.40;;;;;;;;;;5023298;28;20219;-69
2024/01/06 12:19:23;;;;;;;8.80;4.53;;;;;;;;;;5027530;28;20198;-69
2024/01/06 12:21:48;;;;;;;6.30;4.43;;;;;;;;;;5027398;28;20182;-68
2024/01/06 12:24:20;;;;;;;6.37;3.80;;;;;;;;;;5029830;28;20174;-68
2024/01/06 12:26:45;;;;;;;5.73;4.20;;;;;;;;;;5008939;28;20589;-69
2024/01/06 12:29:11;;;;;;;7.17;4.13;;;;;;;;;;5012476;28;20198;-69
2024/01/06 12:31:37;;;;;;;6.07;3.47;;;;;;;;;;5027716;28;20244;-69
2024/01/06 12:34:04;;;;;;;4.57;3.90;;;;;;;;;;5009684;28;20662;-69
2024/01/06 12:36:30;;;;;;;7.13;3.67;;;;;;;;;;5030097;28;20234;-69
2024/01/06 12:38:58;;;;;;;5.03;3.10;;;;;;;;;;5026675;28;20580;-69
2024/01/06 12:41:23;;;;;;;4.20;3.33;;;;;;;;;;5027705;28;20757;-69
2024/01/06 12:43:48;;;;;;;5.53;3.37;;;;;;;;;;5025411;28;20188;-69
2024/01/06 12:46:14;;;;;;;4.57;3.83;;;;;;;;;;5030087;28;20178;-69
2024/01/06 12:48:40;;;;;;;9.77;3.73;;;;;;;;;;5026054;28;20202;-69
2024/01/06 12:51:05;;;;;;;4.63;3.50;;;;;;;;;;5029179;28;20277;-68
2024/01/06 12:53:30;;;;;;;5.23;3.30;;;;;;;;;;5026174;28;20308;-69
2024/01/06 12:55:55;;;;;;;6.60;4.07;;;;;;;;;;5028158;28;20216;-69
2024/01/06 12:58:21;;;;;;;6.40;3.40;;;;;;;;;;5027615;28;20609;-68
2024/01/06 13:00:46;;;;;;;6.20;3.60;;;;;;;;;;5026443;28;20532;-69
2024/01/06 13:03:11;;;;;;;6.47;3.43;;;;;;;;;;5028496;28;20178;-68
2024/01/06 13:05:37;;;;;;;3.90;2.97;;;;;;;;;;5025567;28;20190;-69
2024/01/06 13:08:02;;;;;;;5.57;3.60;;;;;;;;;;5028417;28;20219;-69
2024/01/06 13:10:27;;;;;;;7.83;4.10;;;;;;;;;;5026060;28;20225;-69
2024/01/06 13:12:52;;;;;;;4.90;3.90;;;;;;;;;;5028050;28;20184;-69
2024/01/06 13:15:18;;;;;;;5.10;3.90;;;;;;;;;;5028309;28;20193;-69
2024/01/06 13:17:43;;;;;;;6.80;4.30;;;;;;;;;;5027991;28;20266;-69
2024/01/06 13:20:08;;;;;;;5.13;4.63;;;;;;;;;;5025275;28;20209;-69
2024/01/06 13:22:33;;;;;;;6.87;4.60;;;;;;;;;;5026918;28;20584;-69
2024/01/06 13:24:59;;;;;;;7.67;5.07;;;;;;;;;;5029133;28;20181;-69
2024/01/06 13:27:24;;;;;;;8.40;4.80;;;;;;;;;;5028655;28;20191;-69
2024/01/06 13:29:49;;;;;;;7.07;4.93;;;;;;;;;;5025961;28;20233;-67
2024/01/06 13:32:15;;;;;;;6.83;4.73;;;;;;;;;;5025950;28;20185;-68
2024/01/06 13:34:40;;;;;;;8.23;5.10;;;;;;;;;;5031001;28;20545;-69
2024/01/06 13:37:06;;;;;;;9.00;5.60;;;;;;;;;;5029655;28;20209;-69
2024/01/06 13:39:32;;;;;;;7.80;5.33;;;;;;;;;;5028795;28;20677;-69
2024/01/06 13:41:57;;;;;;;6.77;5.60;;;;;;;;;;5025271;28;20185;-69
2024/01/06 13:44:22;;;;;;;8.97;5.50;;;;;;;;;;5026501;28;20192;-69
2024/01/06 13:46:50;;;;;;;10.70;5.33;;;;;;;;;;5023309;28;20559;-69
2024/01/06 13:49:15;;;;;;;7.90;5.37;;;;;;;;;;5029320;28;20226;-68
2024/01/06 13:51:41;;;;;;;6.67;5.03;;;;;;;;;;5027654;28;20217;-69
2024/01/06 13:54:06;;;;;;;7.67;5.07;;;;;;;;;;5028142;28;20178;-69
2024/01/06 13:56:31;;;;;;;7.57;4.87;;;;;;;;;;5027933;28;20203;-68
2024/01/06 13:58:57;;;;;;;7.63;5.30;;;;;;;;;;5029204;28;20762;-69
2024/01/06 14:01:23;;;;;;;8.00;4.87;;;;;;;;;;5014168;28;20179;-69
2024/01/06 14:03:49;;;;;;;6.30;5.07;;;;;;;;;;5031434;28;20316;-69
2024/01/06 14:06:14;;;;;;;12.93;5.17;;;;;;;;;;5032158;28;20269;-68
2024/01/06 14:08:41;;;;;;;7.13;4.73;;;;;;;;;;5031862;28;20210;-69
2024/01/06 14:11:06;;;;;;;7.80;5.33;;;;;;;;;;5030267;28;20182;-69
2024/01/06 14:13:31;;;;;;;12.00;5.50;;;;;;;;;;5029029;28;20182;-69
2024/01/06 14:15:57;;;;;;;8.33;5.97;;;;;;;;;;5029642;28;20221;-69
2024/01/06 14:18:22;;;;;;;9.20;5.67;;;;;;;;;;5032216;28;20550;-69
2024/01/06 14:20:48;;;;;;;10.03;5.80;;;;;;;;;;5030386;28;20174;-69
2024/01/06 14:23:13;;;;;;;8.80;6.07;;;;;;;;;;5010917;28;20187;-68
2024/01/06 14:25:39;;;;;;;10.83;5.50;;;;;;;;;;5013521;28;20305;-69
2024/01/06 14:28:06;;;;;;;8.70;5.50;;;;;;;;;;5031397;28;20228;-69
2024/01/06 14:30:31;;;;;;;9.63;5.43;;;;;;;;;;5028781;28;20289;-69